Burton, West Virginia
Current Conditions -  °F | °C
As of 8:53 PM on Friday 19 Dec 2014 (Local Time) from KCKB Reporting Station
Overcast Overcast  
Wind Chill: 30°   Ceiling: 1900
Heat Index: 30°   Visibility: 10mi
Dew Point: 23°   Wind: 3mph
Humidity: 75%   Direction: 330°NNW
Pressure: 30.27"   Gusts: NA
Location:  39.66°N, 80.43°W
Report Text: KCKB 200153Z 33003KT 10SM OVC019 M01/M05 A3027 RMK AO2 SLP258 T10111050
Loading
Personal Weather Stations






























Interactive Weather Map New forecast layout! Learn more

10-Day Weather Forecast

Advertisements
Track Severe Weather on mobile